Indian Creek Village, Florida
Current Conditions -  °F | °C
As of 7:53 PM on Friday 24 Oct 2014 (Local Time) from KOPF Reporting Station
Overcast Overcast  
Wind Chill: 25°   Ceiling: 4000
Heat Index: 26°   Visibility: 10mi
Dew Point: 21°   Wind: 12mph
Humidity: 76%   Direction: 10°N
Pressure: 29.83"   Gusts: NA
Location:  25.882°N, 80.1292°W
Report Text: KOPF 242353Z 01010KT 10SM SCT030 BKN040 OVC065 25/21 A2983 RMK AO2 SLP103 60000 T02500206 10261 20250 53007
Loading
Personal Weather Stations






























Interactive Weather Map
Tropical Storm Tracking
New forecast layout! Learn more

10-Day Weather Forecast

Advertisements
Track Severe Weather on mobile